Time;durP1;ratioP1;P1;durP2;ratioP2;P2;SDS_P1;SDS_P2;PMS_P1;PMS_P2;Temp;Humidity;BMP_temperature;BMP_pressure;BME280_temperature;BME280_humidity;BME280_pressure;Samples;Min_cycle;Max_cycle;Signal;HPM_P1;HPM_P2
2021/12/26 00:00:23;;;;;;;6.80;5.35;;;2.30;41.10;;;;;;5029442;28;20395;-74
2021/12/26 00:02:49;;;;;;;6.07;5.30;;;2.50;40.40;;;;;;5031638;28;20402;-75
2021/12/26 00:05:16;;;;;;;10.23;5.30;;;2.50;40.30;;;;;;5032133;28;20383;-75
2021/12/26 00:07:41;;;;;;;6.45;5.28;;;2.60;39.80;;;;;;5012486;28;20404;-74
2021/12/26 00:10:10;;;;;;;7.53;5.05;;;2.50;40.00;;;;;;5028452;28;20391;-72
2021/12/26 00:12:36;;;;;;;7.15;5.57;;;2.60;40.60;;;;;;5030519;28;20956;-73
2021/12/26 00:15:03;;;;;;;6.70;5.27;;;2.70;39.40;;;;;;5024499;28;20876;-74
2021/12/26 00:17:29;;;;;;;8.37;5.47;;;2.70;39.60;;;;;;5032260;28;20581;-74
2021/12/26 00:19:55;;;;;;;7.15;5.00;;;2.60;39.90;;;;;;5038840;28;20469;-74
2021/12/26 00:22:20;;;;;;;7.75;5.68;;;2.50;40.90;;;;;;5020421;28;20423;-74
2021/12/26 00:24:46;;;;;;;7.30;5.50;;;2.40;41.80;;;;;;5031945;28;20726;-73
2021/12/26 00:27:13;;;;;;;8.43;5.85;;;2.30;42.70;;;;;;5032967;28;20466;-73
2021/12/26 00:29:39;;;;;;;9.67;6.10;;;2.20;43.30;;;;;;5033456;28;20782;-74
2021/12/26 00:32:06;;;;;;;6.90;5.60;;;2.00;44.50;;;;;;5033314;28;20490;-73
2021/12/26 00:34:32;;;;;;;8.70;5.88;;;1.90;46.30;;;;;;5030361;28;20444;-73
2021/12/26 00:36:58;;;;;;;12.30;5.63;;;1.90;46.80;;;;;;5032444;28;20438;-74
2021/12/26 00:39:23;;;;;;;8.45;5.30;;;2.00;47.20;;;;;;5032020;28;20904;-72
2021/12/26 00:41:49;;;;;;;7.30;5.40;;;2.30;44.50;;;;;;5031975;28;20466;-73
2021/12/26 00:44:15;;;;;;;6.35;5.53;;;2.40;45.00;;;;;;5033666;28;20417;-73
2021/12/26 00:46:40;;;;;;;6.38;5.25;;;2.60;44.20;;;;;;5029900;28;20399;-73
2021/12/26 00:49:06;;;;;;;7.00;5.47;;;2.70;43.90;;;;;;5031454;28;20464;-74
2021/12/26 00:51:32;;;;;;;7.55;5.70;;;2.60;44.10;;;;;;5013347;28;20989;-74
2021/12/26 00:53:58;;;;;;;10.85;6.20;;;2.50;44.70;;;;;;5024995;28;20386;-73
2021/12/26 00:56:23;;;;;;;9.67;6.20;;;2.40;45.70;;;;;;5033106;28;20509;-74
2021/12/26 00:58:49;;;;;;;8.80;6.10;;;2.40;46.90;;;;;;5032620;28;20391;-74
2021/12/26 01:01:15;;;;;;;8.85;6.00;;;2.60;45.50;;;;;;5033842;28;20405;-73
2021/12/26 01:03:42;;;;;;;7.77;5.37;;;2.60;44.90;;;;;;5028201;28;20479;-74
2021/12/26 01:06:08;;;;;;;9.88;5.60;;;2.60;43.70;;;;;;5015229;28;20478;-74
2021/12/26 01:08:38;;;;;;;7.93;5.38;;;2.50;44.70;;;;;;5018720;28;20402;-74
2021/12/26 01:11:15;;;;;;;6.70;5.30;;;2.60;45.10;;;;;;5020074;28;20387;-73
2021/12/26 01:13:43;;;;;;;9.30;5.60;;;2.50;45.00;;;;;;5035045;28;20383;-73
2021/12/26 01:16:11;;;;;;;5.85;5.10;;;2.80;44.00;;;;;;5035093;28;20502;-74
2021/12/26 01:18:42;;;;;;;5.70;4.53;;;2.70;45.10;;;;;;5036093;28;20425;-73
2021/12/26 01:21:22;;;;;;;7.95;4.93;;;2.80;42.90;;;;;;5031956;28;20820;-73
2021/12/26 01:23:56;;;;;;;6.57;4.90;;;2.90;42.70;;;;;;5035970;28;20387;-74
2021/12/26 01:26:23;;;;;;;5.57;4.90;;;2.60;43.40;;;;;;5034995;28;20466;-74
2021/12/26 01:28:49;;;;;;;7.82;5.05;;;2.70;43.50;;;;;;5032196;28;20387;-74
2021/12/26 01:31:20;;;;;;;10.80;5.90;;;2.90;43.30;;;;;;5029273;28;20589;-73
2021/12/26 01:33:54;;;;;;;7.25;5.60;;;3.00;42.80;;;;;;5025505;28;20741;-73
2021/12/26 01:36:20;;;;;;;7.90;5.53;;;2.90;42.90;;;;;;5031875;28;20503;-73
2021/12/26 01:38:46;;;;;;;8.27;6.00;;;2.90;42.80;;;;;;5032278;28;20379;-73
2021/12/26 01:41:12;;;;;;;7.40;6.30;;;2.40;45.60;;;;;;5026132;28;20436;-74
2021/12/26 01:43:40;;;;;;;8.98;5.90;;;2.20;47.60;;;;;;5026132;28;20938;-74
2021/12/26 01:46:06;;;;;;;8.07;6.10;;;2.10;48.50;;;;;;5031418;28;20434;-74
2021/12/26 01:48:32;;;;;;;12.88;6.55;;;1.90;50.10;;;;;;5013974;28;20397;-74
2021/12/26 01:50:58;;;;;;;7.82;5.60;;;2.00;50.80;;;;;;5031921;28;20384;-74
2021/12/26 01:53:35;;;;;;;8.75;6.10;;;1.90;50.40;;;;;;5030551;28;20407;-74
2021/12/26 01:56:00;;;;;;;8.77;6.10;;;1.80;51.70;;;;;;5025297;28;20422;-74
2021/12/26 01:58:29;;;;;;;13.07;6.57;;;1.90;53.40;;;;;;5031199;28;20427;-75
2021/12/26 02:00:59;;;;;;;7.20;5.40;;;2.00;51.50;;;;;;5031373;28;20383;-74
2021/12/26 02:03:25;;;;;;;8.88;6.03;;;2.20;50.00;;;;;;5032265;28;20395;-73
2021/12/26 02:05:51;;;;;;;6.60;5.43;;;2.30;49.50;;;;;;5022806;28;20555;-75
2021/12/26 02:08:17;;;;;;;7.45;5.80;;;2.40;48.50;;;;;;5032062;28;20471;-74
2021/12/26 02:10:43;;;;;;;8.75;5.97;;;2.40;48.80;;;;;;5032362;28;20801;-74
2021/12/26 02:13:09;;;;;;;9.80;5.95;;;2.40;48.90;;;;;;5032917;28;20395;-75
2021/12/26 02:15:35;;;;;;;7.95;6.13;;;2.20;50.10;;;;;;5031413;28;20391;-75
2021/12/26 02:18:00;;;;;;;7.05;5.40;;;2.50;48.60;;;;;;5036692;28;20407;-74
2021/12/26 02:23:26;;;;;;;7.20;5.67;;;2.90;44.00;;;;;;5025475;28;20449;-74
2021/12/26 02:28:41;;;;;;;7.03;5.40;;;3.00;43.50;;;;;;5032561;28;20430;-74
2021/12/26 02:31:07;;;;;;;7.50;5.68;;;2.80;44.00;;;;;;5032640;28;20413;-74
2021/12/26 02:33:33;;;;;;;6.68;5.60;;;2.70;44.90;;;;;;5035280;28;20482;-74
2021/12/26 02:36:00;;;;;;;8.57;5.20;;;2.60;46.40;;;;;;5038018;28;20472;-74
2021/12/26 02:38:26;;;;;;;5.95;4.63;;;2.80;46.00;;;;;;5032606;28;20393;-74
2021/12/26 02:40:54;;;;;;;5.80;4.47;;;2.80;45.20;;;;;;5030385;28;20856;-74
2021/12/26 02:43:23;;;;;;;7.03;5.00;;;2.90;43.50;;;;;;5029889;28;20402;-74
2021/12/26 02:45:49;;;;;;;6.70;4.45;;;3.10;42.20;;;;;;5031720;28;20433;-74
2021/12/26 02:48:16;;;;;;;5.90;4.72;;;3.00;43.20;;;;;;5031490;28;20705;-74
2021/12/26 02:50:43;;;;;;;5.72;4.40;;;3.00;42.60;;;;;;5031853;28;20387;-74
2021/12/26 02:53:11;;;;;;;6.55;5.10;;;3.10;42.60;;;;;;5026961;28;20435;-74
2021/12/26 02:55:37;;;;;;;5.95;4.72;;;3.10;42.60;;;;;;5030720;28;20375;-74
2021/12/26 02:58:08;;;;;;;6.25;5.40;;;3.30;40.80;;;;;;5030778;28;20403;-74
2021/12/26 03:01:02;;;;;;;6.03;5.25;;;3.20;41.90;;;;;;5033561;28;20471;-74
2021/12/26 03:03:28;;;;;;;6.30;5.55;;;3.30;40.80;;;;;;5030287;28;20494;-74
2021/12/26 03:05:57;;;;;;;5.20;4.70;;;3.40;41.00;;;;;;5034573;28;20477;-74
2021/12/26 03:08:23;;;;;;;6.43;5.13;;;3.40;41.00;;;;;;5033738;28;20399;-74
2021/12/26 03:10:51;;;;;;;6.10;5.10;;;3.30;41.00;;;;;;5034678;28;20387;-73
2021/12/26 03:13:17;;;;;;;6.18;5.20;;;3.40;41.30;;;;;;5034110;28;20395;-74
2021/12/26 03:15:43;;;;;;;6.28;5.00;;;3.30;41.20;;;;;;5034216;28;20725;-74
2021/12/26 03:18:09;;;;;;;5.60;5.00;;;3.40;40.40;;;;;;5034382;28;20931;-74
2021/12/26 03:20:39;;;;;;;9.95;5.22;;;3.20;41.00;;;;;;5034371;28;20394;-74
2021/12/26 03:23:07;;;;;;;7.15;5.70;;;3.20;41.00;;;;;;5019362;28;20485;-74
2021/12/26 03:25:33;;;;;;;8.18;5.60;;;3.20;40.80;;;;;;5034281;28;20402;-74
2021/12/26 03:28:00;;;;;;;6.00;5.20;;;3.20;41.20;;;;;;5034413;28;20383;-74
2021/12/26 03:30:28;;;;;;;6.70;5.60;;;3.10;41.20;;;;;;5034243;28;20409;-74
2021/12/26 03:32:56;;;;;;;6.70;5.80;;;3.10;42.00;;;;;;5033218;28;20394;-74
2021/12/26 03:35:24;;;;;;;7.47;5.50;;;3.00;42.40;;;;;;5032153;28;20406;-74
2021/12/26 03:37:50;;;;;;;9.20;6.00;;;3.30;40.90;;;;;;5025552;28;20979;-74
2021/12/26 03:40:15;;;;;;;7.40;5.60;;;3.40;40.40;;;;;;5014693;28;20392;-74
2021/12/26 03:42:41;;;;;;;7.50;4.83;;;3.60;39.10;;;;;;5014423;28;20439;-73
2021/12/26 03:45:09;;;;;;;7.93;5.60;;;3.60;39.20;;;;;;5032178;28;20453;-73
2021/12/26 03:47:36;;;;;;;6.35;5.53;;;3.50;39.70;;;;;;5034028;28;20422;-72
2021/12/26 03:50:04;;;;;;;8.73;5.95;;;3.30;40.80;;;;;;5031189;28;20395;-72
2021/12/26 03:52:30;;;;;;;8.00;5.40;;;3.30;40.60;;;;;;5030255;28;20390;-72
2021/12/26 03:54:56;;;;;;;6.22;5.50;;;3.50;39.70;;;;;;5031482;28;20410;-72
2021/12/26 03:57:21;;;;;;;8.23;5.90;;;3.60;38.70;;;;;;5032166;28;20401;-73
2021/12/26 03:59:47;;;;;;;8.60;5.60;;;3.50;39.50;;;;;;5031847;28;20395;-72
2021/12/26 04:02:15;;;;;;;7.40;5.25;;;3.40;39.90;;;;;;5030977;28;20391;-72
2021/12/26 04:04:42;;;;;;;7.00;5.35;;;3.40;40.20;;;;;;5031912;28;20748;-73
2021/12/26 04:07:09;;;;;;;6.95;6.05;;;3.40;40.00;;;;;;5035651;28;20391;-72
2021/12/26 04:09:34;;;;;;;8.93;5.90;;;3.20;40.40;;;;;;5036133;28;20440;-73
2021/12/26 04:12:00;;;;;;;9.52;6.05;;;3.20;41.60;;;;;;5035777;28;20414;-72
2021/12/26 04:14:26;;;;;;;7.07;5.97;;;3.40;40.50;;;;;;5034731;28;20976;-73
2021/12/26 04:16:52;;;;;;;6.78;5.40;;;3.30;40.50;;;;;;5026073;28;20581;-73
2021/12/26 04:19:17;;;;;;;7.40;5.80;;;3.40;40.00;;;;;;5031593;28;20387;-74
2021/12/26 04:21:43;;;;;;;7.20;5.40;;;3.30;40.40;;;;;;5033002;28;20411;-72
2021/12/26 04:24:09;;;;;;;8.80;5.70;;;3.50;39.50;;;;;;5032659;28;20398;-73
2021/12/26 04:26:34;;;;;;;7.63;6.30;;;3.40;39.90;;;;;;5032776;28;20449;-73
2021/12/26 04:29:00;;;;;;;6.88;5.78;;;3.20;40.60;;;;;;5033331;28;20383;-73
2021/12/26 04:31:26;;;;;;;8.98;6.20;;;3.20;41.10;;;;;;5032428;28;20461;-75
2021/12/26 04:33:51;;;;;;;11.57;6.70;;;3.00;41.90;;;;;;5018173;28;20524;-74
2021/12/26 04:36:18;;;;;;;7.17;5.80;;;3.10;42.00;;;;;;5033312;28;20399;-75
2021/12/26 04:38:45;;;;;;;8.25;5.90;;;3.30;42.40;;;;;;5033902;28;20816;-75
2021/12/26 04:41:11;;;;;;;8.40;6.05;;;3.40;40.70;;;;;;5032722;28;20885;-74
2021/12/26 04:43:38;;;;;;;7.13;5.68;;;3.50;40.10;;;;;;5031795;28;20406;-74
2021/12/26 04:46:05;;;;;;;8.20;6.60;;;3.40;40.20;;;;;;5025483;28;20467;-72
2021/12/26 04:48:38;;;;;;;8.40;6.30;;;3.20;41.20;;;;;;5012782;28;20771;-73
2021/12/26 04:51:05;;;;;;;7.90;6.30;;;3.10;42.00;;;;;;5031389;28;20387;-73
2021/12/26 04:53:31;;;;;;;8.43;6.20;;;3.00;42.40;;;;;;5023439;28;20395;-73
2021/12/26 04:55:57;;;;;;;10.07;6.97;;;2.90;43.50;;;;;;5032266;28;20376;-72
2021/12/26 04:58:22;;;;;;;10.10;6.40;;;3.00;42.70;;;;;;5032790;28;20396;-72
2021/12/26 05:00:48;;;;;;;7.75;5.75;;;3.10;42.10;;;;;;5031778;28;20991;-73
2021/12/26 05:03:14;;;;;;;8.00;6.10;;;3.10;41.80;;;;;;5031265;28;20411;-72
2021/12/26 05:05:40;;;;;;;9.38;6.70;;;3.10;42.30;;;;;;5030743;28;20394;-74
2021/12/26 05:08:06;;;;;;;8.70;6.07;;;3.00;42.70;;;;;;5032341;28;20398;-72
2021/12/26 05:10:32;;;;;;;8.30;6.30;;;2.90;42.80;;;;;;5032383;28;20395;-73
2021/12/26 05:13:00;;;;;;;6.88;6.18;;;2.70;44.00;;;;;;5031415;28;20781;-73
2021/12/26 05:15:25;;;;;;;9.25;6.40;;;2.80;43.70;;;;;;5021993;28;20903;-73
2021/12/26 05:17:52;;;;;;;10.30;6.75;;;2.50;45.60;;;;;;5032230;28;20411;-74
2021/12/26 05:20:19;;;;;;;10.32;6.30;;;2.40;48.20;;;;;;5031865;28;20395;-72
2021/12/26 05:22:45;;;;;;;8.23;6.60;;;2.20;49.30;;;;;;5030712;28;20387;-73
2021/12/26 05:25:11;;;;;;;9.02;6.80;;;2.10;50.70;;;;;;5032237;28;20391;-73
2021/12/26 05:27:37;;;;;;;10.95;7.03;;;2.10;51.50;;;;;;5030947;28;20410;-72
2021/12/26 05:30:06;;;;;;;10.38;7.63;;;2.10;52.00;;;;;;5030922;28;20417;-73
2021/12/26 05:32:32;;;;;;;9.27;6.70;;;2.20;52.00;;;;;;5031958;28;20391;-73
2021/12/26 05:34:58;;;;;;;10.00;7.43;;;2.30;51.20;;;;;;5030777;28;20907;-73
2021/12/26 05:37:23;;;;;;;10.95;6.95;;;2.20;51.30;;;;;;5032069;28;20490;-73
2021/12/26 05:39:49;;;;;;;9.13;6.80;;;2.30;51.10;;;;;;5031230;28;20402;-73
2021/12/26 05:42:16;;;;;;;10.20;6.80;;;2.50;50.20;;;;;;5029439;28;20756;-73
2021/12/26 05:44:43;;;;;;;12.25;7.05;;;2.50;50.80;;;;;;5031977;28;20888;-73
2021/12/26 05:47:09;;;;;;;9.63;6.90;;;2.40;50.90;;;;;;5031445;28;20432;-72
2021/12/26 05:49:34;;;;;;;8.68;6.40;;;2.60;50.20;;;;;;5023682;28;20471;-72
2021/12/26 05:52:00;;;;;;;10.70;7.32;;;2.60;49.00;;;;;;5031365;28;20382;-73
2021/12/26 05:54:25;;;;;;;8.50;6.90;;;2.60;49.70;;;;;;5031544;28;20458;-73
2021/12/26 05:56:51;;;;;;;15.20;7.83;;;2.80;49.00;;;;;;5031176;28;20517;-73
2021/12/26 05:59:16;;;;;;;10.20;7.10;;;3.00;46.90;;;;;;5045850;28;20879;-73
2021/12/26 06:01:42;;;;;;;10.07;7.07;;;3.20;45.40;;;;;;5030362;28;20403;-73
2021/12/26 06:04:07;;;;;;;9.70;6.73;;;3.10;45.70;;;;;;5031516;28;20398;-73
2021/12/26 06:06:33;;;;;;;9.80;6.38;;;3.00;46.80;;;;;;5031446;28;20391;-73
2021/12/26 06:08:59;;;;;;;9.70;6.85;;;3.10;46.00;;;;;;5031093;28;20390;-73
2021/12/26 06:11:24;;;;;;;10.77;6.77;;;3.10;46.20;;;;;;5013299;28;20467;-73
2021/12/26 06:13:50;;;;;;;9.40;7.03;;;3.10;46.10;;;;;;5029311;28;20411;-73
2021/12/26 06:16:16;;;;;;;8.87;6.87;;;3.10;46.60;;;;;;5030792;28;20738;-73
2021/12/26 06:18:41;;;;;;;9.27;7.03;;;3.30;44.20;;;;;;5030937;28;20422;-73
2021/12/26 06:21:07;;;;;;;8.20;6.10;;;3.40;43.80;;;;;;5031192;28;20744;-73
2021/12/26 06:23:32;;;;;;;10.50;7.33;;;3.60;42.80;;;;;;5029386;28;21046;-72
2021/12/26 06:25:58;;;;;;;11.02;7.65;;;3.60;42.60;;;;;;5030675;28;20737;-73
2021/12/26 06:28:23;;;;;;;9.95;7.60;;;3.40;43.60;;;;;;5031371;28;20474;-72
2021/12/26 06:30:49;;;;;;;9.30;7.47;;;3.30;43.90;;;;;;5026747;28;20519;-73
2021/12/26 06:33:14;;;;;;;9.53;7.03;;;3.30;43.80;;;;;;5026348;28;20417;-73
2021/12/26 06:35:40;;;;;;;10.10;7.27;;;3.30;43.80;;;;;;5015720;28;20958;-72
2021/12/26 06:38:05;;;;;;;8.53;6.60;;;3.40;43.60;;;;;;5025916;28;20410;-72
2021/12/26 06:40:31;;;;;;;8.70;7.13;;;3.50;42.90;;;;;;5030928;28;20470;-72
2021/12/26 06:42:56;;;;;;;10.33;7.10;;;3.60;42.20;;;;;;5028316;28;20391;-73
2021/12/26 06:45:22;;;;;;;9.70;7.20;;;3.40;42.90;;;;;;5031069;28;20896;-73
2021/12/26 06:47:52;;;;;;;11.23;7.63;;;3.30;43.30;;;;;;5030322;28;20407;-73
2021/12/26 06:50:19;;;;;;;10.85;7.30;;;3.30;44.40;;;;;;5023886;28;20668;-73
2021/12/26 06:52:45;;;;;;;9.95;7.80;;;3.30;44.00;;;;;;5028048;28;20438;-73
2021/12/26 06:55:10;;;;;;;11.30;7.87;;;3.10;44.70;;;;;;5040944;28;20387;-74
2021/12/26 06:57:37;;;;;;;11.03;7.80;;;3.00;46.10;;;;;;5040366;28;20411;-75
2021/12/26 07:00:08;;;;;;;10.80;7.53;;;3.20;44.60;;;;;;5037447;28;20470;-75
2021/12/26 07:02:33;;;;;;;9.68;7.35;;;3.20;45.10;;;;;;5029374;28;20395;-75
2021/12/26 07:04:59;;;;;;;10.85;7.72;;;3.30;45.00;;;;;;5025867;28;20411;-74
2021/12/26 07:07:24;;;;;;;9.93;6.97;;;3.40;44.10;;;;;;5026065;28;20403;-75
2021/12/26 07:09:50;;;;;;;9.83;7.63;;;3.30;45.00;;;;;;5026506;28;20503;-75
2021/12/26 07:12:16;;;;;;;11.30;8.00;;;3.40;43.90;;;;;;5028710;28;20399;-74
2021/12/26 07:14:41;;;;;;;9.57;7.43;;;3.50;43.40;;;;;;5029564;28;20393;-74
2021/12/26 07:17:09;;;;;;;9.23;7.47;;;3.40;43.60;;;;;;5040274;28;20482;-76
2021/12/26 07:19:35;;;;;;;10.88;7.47;;;3.30;44.40;;;;;;5028027;28;20379;-74
2021/12/26 07:22:00;;;;;;;9.97;8.00;;;3.30;44.70;;;;;;5029924;28;20422;-74
2021/12/26 07:24:26;;;;;;;9.90;8.00;;;3.30;44.50;;;;;;5026252;28;20422;-74
2021/12/26 07:26:51;;;;;;;11.07;8.17;;;3.20;45.00;;;;;;5024636;28;20465;-74
2021/12/26 07:29:17;;;;;;;12.80;8.10;;;3.30;45.20;;;;;;5030144;28;20383;-74
2021/12/26 07:31:42;;;;;;;11.88;7.90;;;3.40;45.10;;;;;;5012347;28;20409;-74
2021/12/26 07:34:08;;;;;;;11.40;7.80;;;3.40;44.50;;;;;;5010868;28;20757;-74
2021/12/26 07:36:33;;;;;;;12.20;7.63;;;3.40;44.60;;;;;;5010718;28;20405;-74
2021/12/26 07:38:59;;;;;;;10.47;7.90;;;3.30;45.40;;;;;;5010796;28;20381;-74
2021/12/26 07:41:25;;;;;;;10.60;7.60;;;3.50;44.10;;;;;;5023198;28;20410;-74
2021/12/26 07:43:50;;;;;;;13.40;8.20;;;3.60;43.40;;;;;;5022366;28;20414;-76
2021/12/26 07:46:16;;;;;;;11.60;8.23;;;3.50;43.60;;;;;;5026518;28;20398;-74
2021/12/26 07:48:42;;;;;;;11.00;8.30;;;3.40;44.70;;;;;;5023156;28;20905;-73
2021/12/26 07:51:08;;;;;;;12.00;8.50;;;3.30;44.30;;;;;;5035258;28;20383;-76
2021/12/26 07:53:33;;;;;;;12.05;8.55;;;3.30;45.70;;;;;;5025855;28;20469;-75
2021/12/26 07:55:59;;;;;;;11.85;8.82;;;3.50;45.70;;;;;;5028411;28;20399;-76
2021/12/26 07:58:25;;;;;;;13.50;8.93;;;3.40;44.60;;;;;;5041652;28;20413;-76
2021/12/26 08:00:51;;;;;;;11.67;8.47;;;3.40;45.70;;;;;;5043283;28;20398;-76
2021/12/26 08:03:17;;;;;;;11.35;8.65;;;3.20;46.40;;;;;;5029551;28;20481;-75
2021/12/26 08:05:42;;;;;;;10.43;7.70;;;3.20;46.50;;;;;;5030661;28;20499;-75
2021/12/26 08:08:08;;;;;;;11.52;8.45;;;3.40;45.50;;;;;;5023584;28;20399;-74
2021/12/26 08:10:34;;;;;;;13.25;8.50;;;3.50;45.40;;;;;;5018356;28;20402;-75
2021/12/26 08:12:59;;;;;;;12.17;8.77;;;3.50;45.30;;;;;;5028425;28;20899;-75
2021/12/26 08:15:25;;;;;;;12.67;8.30;;;3.70;43.50;;;;;;5027178;28;20920;-74
2021/12/26 08:17:50;;;;;;;13.80;8.83;;;3.70;43.60;;;;;;5031898;28;20415;-72
2021/12/26 08:20:16;;;;;;;12.97;8.40;;;3.50;44.10;;;;;;5033324;28;20387;-74
2021/12/26 08:22:42;;;;;;;11.32;7.97;;;3.60;44.10;;;;;;5018333;28;20488;-74
2021/12/26 08:25:08;;;;;;;12.13;8.70;;;3.80;43.40;;;;;;5027197;28;20865;-73
2021/12/26 08:27:34;;;;;;;11.05;8.25;;;3.70;43.60;;;;;;5034974;28;20417;-76
2021/12/26 08:30:00;;;;;;;12.43;8.47;;;3.70;44.10;;;;;;5029410;28;20879;-73
2021/12/26 08:32:27;;;;;;;12.40;8.90;;;3.90;43.60;;;;;;5036178;28;20470;-72
2021/12/26 08:34:53;;;;;;;13.45;9.70;;;3.90;42.80;;;;;;5018016;28;20404;-74
2021/12/26 08:37:19;;;;;;;11.77;8.70;;;3.80;45.00;;;;;;5025597;28;20468;-73
2021/12/26 08:39:46;;;;;;;12.00;8.80;;;3.80;44.60;;;;;;5023812;28;20486;-73
2021/12/26 08:42:13;;;;;;;11.23;8.38;;;3.90;43.90;;;;;;5029157;28;20395;-72
2021/12/26 08:44:39;;;;;;;13.07;8.82;;;4.00;42.50;;;;;;5030051;28;20395;-72
2021/12/26 08:47:07;;;;;;;11.82;9.07;;;3.90;43.30;;;;;;5021348;28;20404;-72
2021/12/26 08:49:33;;;;;;;13.32;8.73;;;3.90;43.50;;;;;;5024102;28;20443;-73
2021/12/26 08:51:59;;;;;;;12.20;8.97;;;4.10;42.20;;;;;;5017312;28;20792;-74
2021/12/26 08:54:26;;;;;;;12.05;8.95;;;4.00;43.70;;;;;;5026528;28;20454;-73
2021/12/26 08:56:55;;;;;;;13.40;8.93;;;4.00;43.30;;;;;;5022871;28;20916;-73
2021/12/26 08:59:24;;;;;;;14.13;9.60;;;3.90;43.90;;;;;;5025929;28;20433;-74
2021/12/26 09:01:50;;;;;;;14.15;8.75;;;4.00;44.40;;;;;;5014888;28;20484;-75
2021/12/26 09:04:16;;;;;;;14.15;9.20;;;3.90;44.40;;;;;;5027819;28;20423;-73
2021/12/26 09:06:41;;;;;;;14.25;9.48;;;4.10;43.90;;;;;;5024542;28;20442;-75
2021/12/26 09:09:08;;;;;;;14.55;9.93;;;4.10;43.70;;;;;;5029260;28;20413;-74
2021/12/26 09:11:34;;;;;;;16.05;9.30;;;4.20;43.70;;;;;;5037811;28;20407;-73
2021/12/26 09:14:00;;;;;;;14.30;9.82;;;4.40;42.00;;;;;;5035279;28;20430;-72
2021/12/26 09:16:31;;;;;;;14.50;9.90;;;4.10;43.60;;;;;;5033980;28;20503;-75
2021/12/26 09:18:57;;;;;;;13.57;9.10;;;4.20;43.60;;;;;;5030126;28;20430;-74
2021/12/26 09:21:22;;;;;;;15.10;9.70;;;4.30;43.00;;;;;;5017686;28;20476;-72
2021/12/26 09:23:48;;;;;;;12.90;9.17;;;4.10;43.50;;;;;;5041050;28;20391;-73
2021/12/26 09:26:13;;;;;;;13.40;9.03;;;4.20;43.80;;;;;;5039284;28;20463;-74
2021/12/26 09:28:39;;;;;;;13.43;9.60;;;4.30;44.00;;;;;;5039311;28;20474;-72
2021/12/26 09:31:05;;;;;;;15.10;9.00;;;4.50;42.80;;;;;;5038024;28;20419;-71
2021/12/26 09:33:31;;;;;;;14.20;9.50;;;4.40;42.50;;;;;;5025498;28;20917;-73
2021/12/26 09:35:56;;;;;;;13.93;9.40;;;4.40;42.00;;;;;;5029029;28;20501;-73
2021/12/26 09:38:22;;;;;;;16.07;9.70;;;4.60;41.50;;;;;;5025846;28;20408;-74
2021/12/26 09:40:48;;;;;;;13.90;9.10;;;4.50;41.80;;;;;;5038581;28;20454;-73
2021/12/26 09:43:13;;;;;;;16.27;9.82;;;4.50;42.30;;;;;;5026337;28;20477;-73
2021/12/26 09:45:39;;;;;;;12.63;9.05;;;4.50;42.10;;;;;;5028170;28;20486;-73
2021/12/26 09:48:05;;;;;;;15.50;8.90;;;4.70;41.40;;;;;;5032253;28;20450;-72
2021/12/26 09:50:31;;;;;;;12.43;9.37;;;4.50;42.70;;;;;;5031710;28;20415;-73
2021/12/26 09:52:57;;;;;;;15.10;9.70;;;4.70;42.30;;;;;;5026442;28;20391;-74
2021/12/26 09:55:27;;;;;;;15.27;9.75;;;4.80;40.80;;;;;;5033429;28;20383;-74
2021/12/26 09:57:52;;;;;;;15.90;9.88;;;5.10;39.50;;;;;;5017115;28;20475;-77
2021/12/26 10:00:25;;;;;;;13.97;9.40;;;5.10;38.90;;;;;;5031226;28;20411;-75
2021/12/26 10:03:46;;;;;;;11.90;8.70;;;5.10;39.20;;;;;;5022200;28;20405;-75
2021/12/26 10:08:58;;;;;;;11.82;8.80;;;5.00;40.90;;;;;;5226602;22;20463;-75
2021/12/26 10:11:27;;;;;;;14.35;9.10;;;5.10;39.70;;;;;;5001007;28;20428;-76
2021/12/26 10:13:58;;;;;;;13.60;9.07;;;4.90;40.30;;;;;;5003138;28;20481;-75
2021/12/26 10:16:27;;;;;;;15.48;10.02;;;5.00;40.80;;;;;;4998312;28;20410;-73
2021/12/26 10:18:54;;;;;;;13.98;9.52;;;4.70;42.50;;;;;;4996995;28;20795;-71
2021/12/26 10:21:37;;;;;;;14.43;9.90;;;4.90;42.40;;;;;;5008004;23;20423;-72
2021/12/26 10:24:33;;;;;;;14.13;9.45;;;4.90;41.50;;;;;;4991071;28;20386;-73
2021/12/26 10:27:11;;;;;;;14.43;10.20;;;4.90;42.30;;;;;;4985378;28;20406;-71
2021/12/26 10:29:45;;;;;;;15.68;10.50;;;4.80;43.60;;;;;;4983384;28;20463;-72
2021/12/26 10:32:20;;;;;;;16.48;10.32;;;5.00;42.70;;;;;;4987360;28;20855;-71
2021/12/26 10:34:58;;;;;;;15.45;10.10;;;5.10;42.20;;;;;;4985960;28;20402;-71
2021/12/26 10:37:25;;;;;;;18.90;11.03;;;5.00;42.90;;;;;;4987463;28;21217;-71
2021/12/26 10:39:54;;;;;;;15.70;10.52;;;5.00;43.70;;;;;;4973100;28;20468;-72
2021/12/26 10:42:43;;;;;;;16.27;9.23;;;5.30;42.20;;;;;;4991217;28;20410;-71
2021/12/26 10:45:14;;;;;;;15.00;9.45;;;5.30;42.60;;;;;;4986612;28;20760;-76
2021/12/26 10:47:44;;;;;;;14.48;9.35;;;5.40;42.10;;;;;;4989309;28;20413;-75
2021/12/26 10:50:14;;;;;;;14.02;9.60;;;5.50;41.90;;;;;;4973725;28;20395;-75
2021/12/26 10:53:01;;;;;;;15.98;9.68;;;5.40;42.70;;;;;;4990806;28;20874;-73
2021/12/26 10:55:29;;;;;;;16.08;10.02;;;5.20;43.50;;;;;;4989676;28;20410;-71
2021/12/26 10:57:56;;;;;;;16.48;9.90;;;5.40;43.20;;;;;;4989535;28;21180;-70
2021/12/26 11:00:25;;;;;;;14.52;10.15;;;5.50;43.20;;;;;;4990409;28;20398;-70
2021/12/26 11:02:58;;;;;;;14.97;10.60;;;5.40;45.00;;;;;;4989658;28;20402;-69
2021/12/26 11:05:40;;;;;;;16.50;9.95;;;5.30;44.60;;;;;;4987875;28;20845;-68
2021/12/26 11:08:10;;;;;;;15.65;9.45;;;5.20;45.40;;;;;;4981347;28;20406;-70
2021/12/26 11:10:48;;;;;;;14.40;9.80;;;5.20;46.70;;;;;;4987357;28;20421;-71
2021/12/26 11:13:23;;;;;;;13.60;9.48;;;5.50;46.60;;;;;;4991551;28;20425;-71
2021/12/26 11:15:53;;;;;;;14.65;9.40;;;5.40;47.90;;;;;;4978610;28;20767;-70
2021/12/26 11:18:19;;;;;;;13.50;9.32;;;5.60;47.10;;;;;;4992125;28;20410;-72
2021/12/26 11:20:51;;;;;;;13.82;9.57;;;5.40;50.30;;;;;;4982307;28;20875;-71
2021/12/26 11:23:21;;;;;;;15.68;10.30;;;5.40;52.00;;;;;;4989064;28;20406;-72
2021/12/26 11:25:51;;;;;;;15.80;10.50;;;5.50;52.50;;;;;;4993532;28;20398;-70
2021/12/26 11:28:26;;;;;;;17.75;10.30;;;5.50;53.80;;;;;;4996707;28;20786;-74
2021/12/26 11:30:59;;;;;;;15.13;10.00;;;5.60;54.00;;;;;;4998124;28;20902;-76
2021/12/26 11:33:25;;;;;;;17.77;11.18;;;5.60;54.90;;;;;;4997504;28;20790;-73
2021/12/26 11:35:52;;;;;;;17.52;10.95;;;5.40;55.90;;;;;;4995221;28;20413;-74
2021/12/26 11:38:22;;;;;;;17.08;11.02;;;5.40;57.50;;;;;;4994703;28;20456;-74
2021/12/26 11:40:50;;;;;;;15.57;10.02;;;5.50;56.50;;;;;;4997858;28;20406;-74
2021/12/26 11:43:40;;;;;;;16.70;10.45;;;5.60;55.50;;;;;;5004702;28;20461;-74
2021/12/26 11:46:30;;;;;;;17.00;10.65;;;5.40;56.90;;;;;;5023700;28;20389;-73
2021/12/26 11:49:35;;;;;;;14.80;10.63;;;5.30;57.90;;;;;;5008204;28;20459;-74
2021/12/26 11:52:12;;;;;;;16.70;10.27;;;5.40;58.50;;;;;;5018136;28;20461;-74
2021/12/26 11:54:47;;;;;;;17.05;10.25;;;5.20;59.20;;;;;;5012465;28;20436;-74
2021/12/26 11:58:01;;;;;;;14.65;9.93;;;5.20;60.20;;;;;;5011144;28;20415;-75
2021/12/26 12:00:37;;;;;;;14.77;9.85;;;5.40;57.10;;;;;;4998807;28;20395;-75
2021/12/26 12:03:06;;;;;;;13.50;9.50;;;5.80;53.40;;;;;;4998726;28;20398;-73
2021/12/26 12:05:40;;;;;;;14.05;9.85;;;5.90;51.60;;;;;;5002331;28;20459;-74
2021/12/26 12:08:07;;;;;;;13.05;9.15;;;5.70;51.40;;;;;;5007855;28;20485;-74
2021/12/26 12:10:36;;;;;;;17.20;9.93;;;5.70;52.80;;;;;;5008788;28;20501;-74
2021/12/26 12:13:04;;;;;;;14.90;9.48;;;5.40;55.60;;;;;;5004774;28;20437;-74
2021/12/26 12:16:01;;;;;;;15.25;10.05;;;5.50;55.60;;;;;;4986911;28;20418;-75
2021/12/26 12:18:30;;;;;;;15.57;9.20;;;5.50;54.10;;;;;;5001245;28;20417;-74
2021/12/26 12:21:18;;;;;;;13.90;9.73;;;5.70;52.70;;;;;;5000476;28;20413;-74
2021/12/26 12:24:00;;;;;;;14.10;10.00;;;5.70;52.40;;;;;;5004476;28;20434;-75
2021/12/26 12:26:38;;;;;;;12.75;9.30;;;5.50;54.00;;;;;;4994122;28;20406;-75
2021/12/26 12:29:04;;;;;;;16.33;10.20;;;5.20;55.40;;;;;;4986569;28;20548;-74
2021/12/26 12:31:30;;;;;;;14.45;9.07;;;5.30;56.30;;;;;;4983335;28;20444;-74
2021/12/26 12:34:05;;;;;;;13.40;9.20;;;5.60;54.00;;;;;;4993152;28;20414;-74
2021/12/26 12:36:34;;;;;;;15.18;9.48;;;5.40;54.70;;;;;;4992693;28;20414;-73
2021/12/26 12:39:10;;;;;;;15.00;8.90;;;5.20;56.90;;;;;;4992962;28;20403;-75
2021/12/26 12:41:39;;;;;;;14.55;8.82;;;5.40;54.60;;;;;;4989838;28;20410;-73
2021/12/26 12:44:31;;;;;;;13.70;9.00;;;5.30;56.40;;;;;;4993371;28;20906;-74
2021/12/26 12:47:03;;;;;;;14.93;9.70;;;5.30;56.40;;;;;;4978251;28;20729;-74
2021/12/26 12:49:50;;;;;;;15.20;9.02;;;5.20;59.80;;;;;;4992298;28;20391;-72
2021/12/26 12:52:42;;;;;;;13.17;9.00;;;5.50;59.50;;;;;;4993567;28;20431;-73
2021/12/26 12:55:21;;;;;;;16.05;9.48;;;5.60;57.60;;;;;;4990571;28;20406;-74
2021/12/26 12:57:52;;;;;;;15.20;9.63;;;5.50;57.00;;;;;;4992709;28;20484;-74
2021/12/26 13:00:24;;;;;;;14.15;9.10;;;5.60;57.50;;;;;;4993210;28;20404;-74
2021/12/26 13:02:51;;;;;;;13.18;8.70;;;5.60;55.70;;;;;;4992677;28;20434;-72
2021/12/26 13:05:25;;;;;;;11.85;8.60;;;5.80;53.90;;;;;;4978416;28;20450;-72